Time;durP1;ratioP1;P1;durP2;ratioP2;P2;SDS_P1;SDS_P2;PMS_P1;PMS_P2;Temp;Humidity;BMP_temperature;BMP_pressure;BME280_temperature;BME280_humidity;BME280_pressure;Samples;Min_cycle;Max_cycle;Signal;HPM_P1;HPM_P2
2022/07/01 00:00:41;;;;;;;4.82;2.05;;;;;;;;;;4984103;28;20610;-70
2022/07/01 00:03:06;;;;;;;8.88;2.53;;;;;;;;;;4983993;28;20045;-70
2022/07/01 00:05:32;;;;;;;7.60;2.38;;;;;;;;;;4984000;28;20042;-70
2022/07/01 00:07:57;;;;;;;4.28;1.60;;;;;;;;;;4982583;28;20096;-70
2022/07/01 00:10:23;;;;;;;9.52;2.10;;;;;;;;;;4983217;28;20944;-70
2022/07/01 00:12:48;;;;;;;2.85;1.77;;;;;;;;;;4983864;28;20650;-70
2022/07/01 00:15:14;;;;;;;2.53;1.58;;;;;;;;;;4982769;28;20046;-70
2022/07/01 00:17:40;;;;;;;6.65;1.77;;;;;;;;;;4983804;28;20497;-70
2022/07/01 00:20:07;;;;;;;3.58;1.80;;;;;;;;;;4983576;28;20069;-71
2022/07/01 00:22:34;;;;;;;5.32;2.10;;;;;;;;;;4983628;28;20132;-70
2022/07/01 00:25:00;;;;;;;4.90;1.95;;;;;;;;;;4983558;28;20042;-70
2022/07/01 00:27:25;;;;;;;8.18;2.42;;;;;;;;;;4983900;28;20066;-70
2022/07/01 00:29:51;;;;;;;3.95;2.83;;;;;;;;;;4983780;28;20048;-70
2022/07/01 00:32:16;;;;;;;4.72;2.92;;;;;;;;;;4983305;28;20136;-70
2022/07/01 00:34:42;;;;;;;6.50;2.80;;;;;;;;;;4983534;28;20030;-70
2022/07/01 00:37:07;;;;;;;4.95;3.08;;;;;;;;;;4983786;28;20038;-70
2022/07/01 00:39:35;;;;;;;4.53;2.70;;;;;;;;;;4983526;28;20509;-70
2022/07/01 00:42:03;;;;;;;6.20;3.13;;;;;;;;;;4983645;28;20161;-70
2022/07/01 00:44:29;;;;;;;6.15;3.28;;;;;;;;;;4982475;28;20038;-70
2022/07/01 00:46:55;;;;;;;5.78;3.00;;;;;;;;;;4983478;28;20042;-70
2022/07/01 00:49:21;;;;;;;7.53;3.10;;;;;;;;;;4982979;28;20057;-70
2022/07/01 00:51:47;;;;;;;8.10;3.10;;;;;;;;;;4983487;28;20042;-70
2022/07/01 00:54:13;;;;;;;6.85;2.90;;;;;;;;;;4982209;28;20110;-70
2022/07/01 00:56:39;;;;;;;6.43;3.22;;;;;;;;;;4982876;28;20092;-70
2022/07/01 00:59:05;;;;;;;4.00;3.13;;;;;;;;;;4981226;28;20042;-70
2022/07/01 01:01:30;;;;;;;6.68;3.05;;;;;;;;;;4982991;28;20050;-70
2022/07/01 01:03:56;;;;;;;3.22;2.80;;;;;;;;;;4983307;28;20407;-70
2022/07/01 01:06:21;;;;;;;13.32;3.70;;;;;;;;;;4981053;28;20077;-70
2022/07/01 01:08:48;;;;;;;7.65;3.17;;;;;;;;;;4982970;28;20483;-70
2022/07/01 01:11:15;;;;;;;6.43;3.22;;;;;;;;;;4982772;28;20034;-70
2022/07/01 01:13:41;;;;;;;7.65;3.10;;;;;;;;;;4981358;28;20088;-70
2022/07/01 01:16:07;;;;;;;9.85;2.92;;;;;;;;;;4982074;28;20042;-70
2022/07/01 01:18:33;;;;;;;5.05;3.03;;;;;;;;;;4982733;28;20510;-70
2022/07/01 01:20:59;;;;;;;6.55;3.33;;;;;;;;;;4983058;28;20051;-70
2022/07/01 01:23:24;;;;;;;4.82;3.10;;;;;;;;;;4982294;28;20046;-70
2022/07/01 01:25:50;;;;;;;7.72;2.95;;;;;;;;;;4982867;28;20042;-70
2022/07/01 01:28:15;;;;;;;4.57;3.00;;;;;;;;;;4981330;28;20038;-70
2022/07/01 01:30:41;;;;;;;7.82;2.47;;;;;;;;;;4982516;28;20074;-70
2022/07/01 01:33:11;;;;;;;9.13;2.50;;;;;;;;;;4982300;28;20153;-70
2022/07/01 01:35:37;;;;;;;6.60;2.55;;;;;;;;;;4982174;28;20046;-70
2022/07/01 01:38:02;;;;;;;2.95;2.20;;;;;;;;;;4981313;28;20077;-70
2022/07/01 01:40:27;;;;;;;2.50;2.30;;;;;;;;;;4981790;28;20053;-70
2022/07/01 01:42:53;;;;;;;4.90;1.90;;;;;;;;;;4982629;28;20084;-70
2022/07/01 01:45:18;;;;;;;5.85;1.80;;;;;;;;;;4982851;28;20478;-70
2022/07/01 01:47:44;;;;;;;4.93;1.90;;;;;;;;;;4982395;28;20602;-70
2022/07/01 01:50:12;;;;;;;3.83;1.40;;;;;;;;;;4976516;28;20129;-70
2022/07/01 01:52:38;;;;;;;1.50;1.38;;;;;;;;;;4981107;28;20030;-70
2022/07/01 01:55:04;;;;;;;2.40;1.40;;;;;;;;;;4982565;28;20040;-70
2022/07/01 01:57:30;;;;;;;2.97;1.25;;;;;;;;;;4982547;28;20034;-70
2022/07/01 01:59:55;;;;;;;3.72;1.10;;;;;;;;;;4982051;28;20099;-70
2022/07/01 02:02:21;;;;;;;2.90;1.30;;;;;;;;;;4982387;28;20042;-70
2022/07/01 02:04:47;;;;;;;1.27;1.02;;;;;;;;;;4982203;28;20606;-71
2022/07/01 02:07:12;;;;;;;4.40;1.40;;;;;;;;;;4982242;28;20046;-70
2022/07/01 02:09:38;;;;;;;0.93;0.93;;;;;;;;;;4982617;28;20030;-70
2022/07/01 02:12:04;;;;;;;5.47;1.30;;;;;;;;;;4981553;28;20125;-70
2022/07/01 02:14:29;;;;;;;2.35;1.10;;;;;;;;;;4984393;28;20038;-70
2022/07/01 02:16:55;;;;;;;5.30;1.02;;;;;;;;;;4986650;28;20414;-70
2022/07/01 02:19:20;;;;;;;5.22;1.25;;;;;;;;;;4985624;28;20050;-70
2022/07/01 02:21:46;;;;;;;3.80;1.00;;;;;;;;;;4985482;28;20136;-70
2022/07/01 02:24:11;;;;;;;0.85;0.82;;;;;;;;;;4985792;28;20066;-70
2022/07/01 02:26:36;;;;;;;1.45;1.17;;;;;;;;;;4986179;28;20034;-70
2022/07/01 02:29:02;;;;;;;1.95;1.00;;;;;;;;;;4985523;28;20048;-70
2022/07/01 02:31:28;;;;;;;5.28;1.30;;;;;;;;;;4985045;28;20042;-70
2022/07/01 02:33:53;;;;;;;1.15;0.98;;;;;;;;;;4984781;28;20038;-71
2022/07/01 02:36:19;;;;;;;3.90;1.10;;;;;;;;;;4985911;28;20037;-70
2022/07/01 02:38:44;;;;;;;1.25;1.00;;;;;;;;;;4985658;28;20419;-70
2022/07/01 02:41:10;;;;;;;2.20;1.08;;;;;;;;;;4986072;28;20042;-70
2022/07/01 02:43:35;;;;;;;2.60;0.80;;;;;;;;;;4984925;28;20442;-70
2022/07/01 02:46:01;;;;;;;1.60;1.17;;;;;;;;;;4985870;28;20030;-70
2022/07/01 02:48:26;;;;;;;0.73;0.73;;;;;;;;;;4986110;28;20451;-70
2022/07/01 02:50:52;;;;;;;9.43;1.15;;;;;;;;;;4985805;28;20065;-70
2022/07/01 02:53:17;;;;;;;1.13;0.70;;;;;;;;;;4985068;28;20038;-70
2022/07/01 02:55:42;;;;;;;1.85;0.80;;;;;;;;;;4985084;28;20034;-70
2022/07/01 02:58:08;;;;;;;1.55;0.75;;;;;;;;;;4984960;28;20574;-70
2022/07/01 03:00:33;;;;;;;2.50;0.68;;;;;;;;;;4985078;28;20030;-70
2022/07/01 03:02:59;;;;;;;1.00;0.60;;;;;;;;;;4984995;28;20131;-69
2022/07/01 03:05:24;;;;;;;1.17;0.80;;;;;;;;;;4984441;28;20038;-70
2022/07/01 03:07:50;;;;;;;2.88;0.60;;;;;;;;;;4984869;28;20030;-71
2022/07/01 03:10:15;;;;;;;1.90;0.70;;;;;;;;;;4984719;28;20728;-72
2022/07/01 03:12:41;;;;;;;5.63;1.20;;;;;;;;;;4984498;28;20046;-71
2022/07/01 03:15:12;;;;;;;0.60;0.60;;;;;;;;;;4984852;28;20050;-72
2022/07/01 03:17:42;;;;;;;2.60;0.80;;;;;;;;;;4983446;28;20038;-70
2022/07/01 03:20:10;;;;;;;2.20;0.60;;;;;;;;;;4984377;28;20042;-73
2022/07/01 03:22:36;;;;;;;8.18;0.90;;;;;;;;;;4984587;28;20149;-71
2022/07/01 03:25:03;;;;;;;2.47;0.75;;;;;;;;;;4982994;28;20124;-69
2022/07/01 03:27:28;;;;;;;2.10;0.90;;;;;;;;;;4983757;28;20042;-72
2022/07/01 03:29:54;;;;;;;0.80;0.77;;;;;;;;;;4984284;28;20049;-69
2022/07/01 03:32:19;;;;;;;0.93;0.60;;;;;;;;;;4984449;28;20553;-70
2022/07/01 03:34:48;;;;;;;3.60;0.65;;;;;;;;;;4983217;28;20031;-69
2022/07/01 03:37:14;;;;;;;1.13;0.60;;;;;;;;;;4984496;28;20034;-70
2022/07/01 03:39:40;;;;;;;1.13;0.93;;;;;;;;;;4982059;28;20185;-69
2022/07/01 03:42:07;;;;;;;1.88;0.75;;;;;;;;;;4984499;28;20062;-72
2022/07/01 03:44:34;;;;;;;1.23;0.70;;;;;;;;;;4983916;28;20041;-71
2022/07/01 03:47:00;;;;;;;2.67;0.60;;;;;;;;;;4984530;28;20454;-72
2022/07/01 03:49:25;;;;;;;3.55;0.75;;;;;;;;;;4983331;28;20128;-69
2022/07/01 03:51:52;;;;;;;4.70;1.00;;;;;;;;;;4981085;28;20030;-70
2022/07/01 03:54:29;;;;;;;2.53;0.70;;;;;;;;;;4983774;28;20042;-72
2022/07/01 03:57:15;;;;;;;0.45;0.45;;;;;;;;;;4984170;28;20088;-70
2022/07/01 03:59:40;;;;;;;0.60;0.60;;;;;;;;;;4981577;28;20096;-69
2022/07/01 04:02:07;;;;;;;0.70;0.70;;;;;;;;;;4981974;28;20117;-71
2022/07/01 04:04:34;;;;;;;1.02;0.60;;;;;;;;;;4983580;28;20030;-70
2022/07/01 04:07:01;;;;;;;1.85;0.70;;;;;;;;;;4984021;28;20069;-70
2022/07/01 04:09:29;;;;;;;2.10;0.60;;;;;;;;;;4983492;28;20514;-70
2022/07/01 04:11:56;;;;;;;1.20;0.60;;;;;;;;;;4982839;28;20137;-71
2022/07/01 04:14:22;;;;;;;2.15;0.60;;;;;;;;;;4983478;28;20070;-72
2022/07/01 04:16:47;;;;;;;0.85;0.60;;;;;;;;;;4983722;28;20070;-70
2022/07/01 04:19:14;;;;;;;2.25;0.63;;;;;;;;;;4983742;28;20852;-71
2022/07/01 04:24:24;;;;;;;1.52;0.57;;;;;;;;;;4982806;28;20092;-70
2022/07/01 04:26:50;;;;;;;2.25;0.65;;;;;;;;;;4983248;28;20030;-72
2022/07/01 04:29:15;;;;;;;1.65;0.70;;;;;;;;;;4981331;28;20134;-70
2022/07/01 04:31:41;;;;;;;1.98;0.70;;;;;;;;;;4983087;28;20110;-71
2022/07/01 04:34:08;;;;;;;2.35;0.70;;;;;;;;;;4982059;28;20049;-70
2022/07/01 04:36:34;;;;;;;0.60;0.60;;;;;;;;;;4979770;28;20042;-72
2022/07/01 04:39:00;;;;;;;0.60;0.60;;;;;;;;;;4982763;28;20506;-71
2022/07/01 04:44:10;;;;;;;0.95;0.60;;;;;;;;;;4982425;28;20042;-71
2022/07/01 04:46:36;;;;;;;1.08;0.70;;;;;;;;;;4983498;28;20424;-71
2022/07/01 04:49:02;;;;;;;0.82;0.60;;;;;;;;;;4981212;28;20037;-71
2022/07/01 04:51:28;;;;;;;2.75;0.60;;;;;;;;;;4982725;28;20034;-72
2022/07/01 04:53:54;;;;;;;2.72;0.70;;;;;;;;;;4982451;28;20089;-72
2022/07/01 04:56:19;;;;;;;0.60;0.60;;;;;;;;;;4981794;28;20034;-71
2022/07/01 04:58:44;;;;;;;0.55;0.55;;;;;;;;;;4982306;28;20118;-70
2022/07/01 05:01:10;;;;;;;0.88;0.60;;;;;;;;;;4983111;28;20112;-71
2022/07/01 05:03:35;;;;;;;0.88;0.60;;;;;;;;;;4981933;28;20049;-70
2022/07/01 05:06:01;;;;;;;3.50;0.70;;;;;;;;;;4984200;28;20045;-69
2022/07/01 05:08:28;;;;;;;0.60;0.60;;;;;;;;;;4982962;28;20030;-69
2022/07/01 05:10:54;;;;;;;1.15;0.65;;;;;;;;;;4984761;28;20092;-70
2022/07/01 05:13:23;;;;;;;0.50;0.50;;;;;;;;;;4983541;28;20046;-70
2022/07/01 05:15:49;;;;;;;1.85;0.60;;;;;;;;;;4983190;28;20041;-70
2022/07/01 05:23:43;;;;;;;0.95;0.50;;;;;;;;;;4978022;28;20027;-69
2022/07/01 05:26:08;;;;;;;0.68;0.60;;;;;;;;;;4980578;28;20084;-69
2022/07/01 05:28:34;;;;;;;0.68;0.68;;;;;;;;;;4979618;28;20866;-69
2022/07/01 05:30:59;;;;;;;2.22;0.70;;;;;;;;;;4980276;28;20040;-69
2022/07/01 05:33:26;;;;;;;0.98;0.80;;;;;;;;;;4980757;28;20358;-69
2022/07/01 05:35:53;;;;;;;1.70;0.70;;;;;;;;;;4981696;28;20046;-69
2022/07/01 05:38:18;;;;;;;0.60;0.60;;;;;;;;;;4981847;28;20555;-69
2022/07/01 05:40:44;;;;;;;1.38;0.60;;;;;;;;;;4981037;28;20065;-69
2022/07/01 05:43:09;;;;;;;0.57;0.57;;;;;;;;;;4982042;28;20117;-69
2022/07/01 05:45:35;;;;;;;1.38;0.95;;;;;;;;;;4981718;28;20597;-69
2022/07/01 05:48:00;;;;;;;0.82;0.65;;;;;;;;;;4981202;28;20034;-69
2022/07/01 05:50:26;;;;;;;0.60;0.60;;;;;;;;;;4981091;28;20057;-69
2022/07/01 05:52:51;;;;;;;2.35;0.70;;;;;;;;;;4982113;28;20045;-69
2022/07/01 05:55:17;;;;;;;3.08;0.80;;;;;;;;;;4982318;28;20042;-69
2022/07/01 05:57:42;;;;;;;2.70;0.80;;;;;;;;;;4982147;28;20034;-69
2022/07/01 06:00:09;;;;;;;0.60;0.60;;;;;;;;;;4978651;28;20088;-70
2022/07/01 06:02:38;;;;;;;0.98;0.70;;;;;;;;;;4981074;28;20372;-70
2022/07/01 06:05:03;;;;;;;0.95;0.60;;;;;;;;;;4981723;28;20509;-70
2022/07/01 06:07:30;;;;;;;0.73;0.70;;;;;;;;;;4982077;28;20037;-70
2022/07/01 06:09:56;;;;;;;0.60;0.60;;;;;;;;;;4982142;28;20050;-70
2022/07/01 06:12:22;;;;;;;2.47;0.80;;;;;;;;;;4980755;28;20092;-70
2022/07/01 06:14:47;;;;;;;1.38;0.80;;;;;;;;;;4981514;28;20042;-70
2022/07/01 06:17:13;;;;;;;1.27;0.60;;;;;;;;;;4980592;28;20159;-70
2022/07/01 06:19:39;;;;;;;0.98;0.70;;;;;;;;;;4981854;28;20030;-71
2022/07/01 06:22:05;;;;;;;0.73;0.70;;;;;;;;;;4981762;28;20070;-70
2022/07/01 06:24:31;;;;;;;1.85;0.70;;;;;;;;;;4981092;28;20039;-70
2022/07/01 06:26:56;;;;;;;0.75;0.75;;;;;;;;;;4981671;28;20046;-70
2022/07/01 06:29:22;;;;;;;0.93;0.65;;;;;;;;;;4981389;28;20038;-69
2022/07/01 06:31:47;;;;;;;2.20;0.70;;;;;;;;;;4982277;28;20487;-69
2022/07/01 06:34:13;;;;;;;0.95;0.70;;;;;;;;;;4981180;28;20065;-69
2022/07/01 06:36:38;;;;;;;2.05;0.75;;;;;;;;;;4981509;28;20034;-70
2022/07/01 06:39:04;;;;;;;0.70;0.70;;;;;;;;;;4981725;28;20034;-70
2022/07/01 06:41:29;;;;;;;0.60;0.60;;;;;;;;;;4980238;28;20038;-72
2022/07/01 06:43:59;;;;;;;1.45;0.70;;;;;;;;;;4981088;28;20045;-72
2022/07/01 06:46:26;;;;;;;0.82;0.60;;;;;;;;;;4980486;28;20058;-72
2022/07/01 06:48:51;;;;;;;0.70;0.70;;;;;;;;;;4981816;28;20038;-72
2022/07/01 06:51:17;;;;;;;0.98;0.60;;;;;;;;;;4981338;28;20041;-71
2022/07/01 06:53:46;;;;;;;1.40;0.70;;;;;;;;;;4980339;28;20156;-70
2022/07/01 06:56:12;;;;;;;4.25;0.50;;;;;;;;;;4980620;28;20126;-72
2022/07/01 06:58:38;;;;;;;1.00;1.00;;;;;;;;;;4980356;28;20038;-70
2022/07/01 07:01:04;;;;;;;0.60;0.60;;;;;;;;;;4984280;28;20447;-73
2022/07/01 07:03:31;;;;;;;0.60;0.60;;;;;;;;;;4984782;28;20502;-69
2022/07/01 07:06:00;;;;;;;4.45;0.70;;;;;;;;;;4984609;28;20038;-70
2022/07/01 07:08:30;;;;;;;1.35;0.82;;;;;;;;;;4984086;28;20038;-71
2022/07/01 07:10:56;;;;;;;1.30;0.50;;;;;;;;;;4984661;28;20050;-71
2022/07/01 07:13:23;;;;;;;1.30;0.68;;;;;;;;;;4984522;28;20030;-74
2022/07/01 07:15:48;;;;;;;0.50;0.50;;;;;;;;;;4984511;28;20038;-70
2022/07/01 07:18:14;;;;;;;0.73;0.60;;;;;;;;;;4984339;28;20116;-71
2022/07/01 07:20:39;;;;;;;0.60;0.60;;;;;;;;;;4984326;28;20041;-70
2022/07/01 07:23:05;;;;;;;0.80;0.80;;;;;;;;;;4984700;28;20034;-70
2022/07/01 07:25:30;;;;;;;1.52;0.65;;;;;;;;;;4984039;28;20069;-69
2022/07/01 07:27:56;;;;;;;1.75;0.57;;;;;;;;;;4984684;28;20046;-69
2022/07/01 07:30:22;;;;;;;0.50;0.50;;;;;;;;;;4983451;28;20093;-69
2022/07/01 07:32:47;;;;;;;1.27;0.60;;;;;;;;;;4983242;28;20054;-70
2022/07/01 07:35:13;;;;;;;1.48;0.88;;;;;;;;;;4984076;28;20050;-70
2022/07/01 07:37:39;;;;;;;1.80;0.68;;;;;;;;;;4984572;28;20066;-71
2022/07/01 07:40:07;;;;;;;5.20;0.90;;;;;;;;;;4984136;28;20065;-70
2022/07/01 07:42:33;;;;;;;1.00;0.80;;;;;;;;;;4983161;28;20030;-70
2022/07/01 07:44:59;;;;;;;2.05;0.70;;;;;;;;;;4983356;28;20075;-69
2022/07/01 07:47:25;;;;;;;5.40;0.75;;;;;;;;;;4983790;28;20080;-69
2022/07/01 07:49:50;;;;;;;1.40;0.60;;;;;;;;;;4984286;28;20144;-70
2022/07/01 07:52:15;;;;;;;2.85;1.00;;;;;;;;;;4982141;28;20061;-70
2022/07/01 07:54:41;;;;;;;1.58;0.85;;;;;;;;;;4984181;28;20045;-70
2022/07/01 07:57:07;;;;;;;1.95;0.70;;;;;;;;;;4984035;28;20076;-69
2022/07/01 07:59:33;;;;;;;0.60;0.60;;;;;;;;;;4983670;28;20053;-69
2022/07/01 08:01:59;;;;;;;0.70;0.70;;;;;;;;;;4984157;28;20049;-70
2022/07/01 08:04:24;;;;;;;0.77;0.77;;;;;;;;;;4982064;28;20100;-69
2022/07/01 08:06:50;;;;;;;1.38;0.77;;;;;;;;;;4981803;28;20423;-69
2022/07/01 08:09:15;;;;;;;1.00;0.70;;;;;;;;;;4983181;28;20045;-71
2022/07/01 08:11:41;;;;;;;0.88;0.80;;;;;;;;;;4982266;28;20046;-70
2022/07/01 08:14:06;;;;;;;0.68;0.50;;;;;;;;;;4982449;28;20037;-69
2022/07/01 08:16:32;;;;;;;2.45;0.75;;;;;;;;;;4982877;28;20057;-70
2022/07/01 08:18:57;;;;;;;2.78;0.60;;;;;;;;;;4984047;28;20556;-71
2022/07/01 08:21:23;;;;;;;0.70;0.70;;;;;;;;;;4983626;28;20045;-72
2022/07/01 08:23:49;;;;;;;1.80;0.75;;;;;;;;;;4982115;28;20058;-71
2022/07/01 08:26:16;;;;;;;0.98;0.60;;;;;;;;;;4980770;28;20068;-72
2022/07/01 08:28:42;;;;;;;0.93;0.70;;;;;;;;;;4982518;28;20031;-70
2022/07/01 08:31:08;;;;;;;0.60;0.60;;;;;;;;;;4983744;28;20044;-70
2022/07/01 08:33:34;;;;;;;2.28;1.05;;;;;;;;;;4982167;28;20046;-70
2022/07/01 08:36:00;;;;;;;0.82;0.80;;;;;;;;;;4981876;28;20146;-70
2022/07/01 08:38:26;;;;;;;2.15;0.50;;;;;;;;;;4982480;28;20113;-71
2022/07/01 08:40:51;;;;;;;1.80;0.60;;;;;;;;;;4982434;28;20034;-70
2022/07/01 08:43:16;;;;;;;0.90;0.80;;;;;;;;;;4982788;28;20042;-70
2022/07/01 08:45:42;;;;;;;0.55;0.55;;;;;;;;;;4983064;28;20038;-70
2022/07/01 08:48:08;;;;;;;0.63;0.50;;;;;;;;;;4982566;28;20042;-69
2022/07/01 08:50:36;;;;;;;2.33;0.73;;;;;;;;;;4982400;28;20034;-70
2022/07/01 08:53:02;;;;;;;2.13;0.75;;;;;;;;;;4981803;28;20049;-73
2022/07/01 08:55:28;;;;;;;2.15;1.45;;;;;;;;;;4982758;28;20514;-70
2022/07/01 08:57:54;;;;;;;1.90;1.80;;;;;;;;;;4982272;28;20018;-70
2022/07/01 09:00:20;;;;;;;2.35;1.65;;;;;;;;;;4982008;28;20777;-73
2022/07/01 09:03:03;;;;;;;1.77;1.65;;;;;;;;;;4982140;28;20092;-70
2022/07/01 09:05:31;;;;;;;2.20;2.00;;;;;;;;;;4982620;28;20038;-72
2022/07/01 09:08:06;;;;;;;2.38;2.17;;;;;;;;;;4982285;28;20156;-70
2022/07/01 09:10:35;;;;;;;2.40;1.10;;;;;;;;;;4981970;28;20475;-72
2022/07/01 09:13:08;;;;;;;0.95;0.80;;;;;;;;;;4982385;28;20046;-72
2022/07/01 09:15:36;;;;;;;1.77;0.80;;;;;;;;;;4980996;28;20052;-72
2022/07/01 09:18:11;;;;;;;0.50;0.50;;;;;;;;;;4980366;28;20125;-72
2022/07/01 09:20:40;;;;;;;3.05;0.68;;;;;;;;;;4979935;28;20053;-73
2022/07/01 09:23:10;;;;;;;3.80;0.60;;;;;;;;;;4982300;28;20186;-73
2022/07/01 09:25:37;;;;;;;1.10;0.52;;;;;;;;;;4982103;28;20101;-71
2022/07/01 09:28:17;;;;;;;1.35;0.80;;;;;;;;;;4981717;28;20077;-70
2022/07/01 09:30:48;;;;;;;2.10;0.60;;;;;;;;;;4981232;28;20045;-72
2022/07/01 09:33:16;;;;;;;0.67;0.67;;;;;;;;;;4982157;28;20046;-74
2022/07/01 09:35:43;;;;;;;2.90;0.80;;;;;;;;;;4981429;28;20120;-72
2022/07/01 09:38:13;;;;;;;0.73;0.73;;;;;;;;;;4982677;28;20046;-72
2022/07/01 09:40:56;;;;;;;0.70;0.70;;;;;;;;;;4980376;28;20038;-70
2022/07/01 09:43:28;;;;;;;2.55;0.70;;;;;;;;;;4979407;28;20044;-71
2022/07/01 09:45:55;;;;;;;3.88;1.08;;;;;;;;;;4980293;28;20045;-72
2022/07/01 09:48:22;;;;;;;1.10;0.80;;;;;;;;;;4979888;28;20031;-70
2022/07/01 09:50:48;;;;;;;3.90;1.25;;;;;;;;;;4979919;28;20042;-71
2022/07/01 09:53:13;;;;;;;1.05;0.90;;;;;;;;;;4979680;28;20034;-70
2022/07/01 09:55:40;;;;;;;1.38;0.80;;;;;;;;;;4981496;28;20037;-72
2022/07/01 09:58:06;;;;;;;2.17;0.85;;;;;;;;;;4982093;28;20026;-72
2022/07/01 10:00:32;;;;;;;2.63;0.90;;;;;;;;;;4981736;28;20030;-73
2022/07/01 10:03:00;;;;;;;2.00;0.85;;;;;;;;;;4981820;28;20074;-72
2022/07/01 10:05:28;;;;;;;2.05;1.17;;;;;;;;;;4980916;28;20041;-72
2022/07/01 10:08:30;;;;;;;1.20;1.10;;;;;;;;;;4982081;28;20042;-72
2022/07/01 10:11:15;;;;;;;3.70;1.45;;;;;;;;;;4980114;28;20034;-71
2022/07/01 10:13:41;;;;;;;0.98;0.98;;;;;;;;;;4979984;28;20030;-72
2022/07/01 10:16:08;;;;;;;3.28;1.40;;;;;;;;;;4980774;28;20053;-71
2022/07/01 10:18:34;;;;;;;0.90;0.90;;;;;;;;;;4981652;28;20035;-73
2022/07/01 10:21:01;;;;;;;6.13;1.63;;;;;;;;;;4979979;28;20042;-73
2022/07/01 10:23:42;;;;;;;0.95;0.95;;;;;;;;;;4980160;28;20042;-73
2022/07/01 10:26:10;;;;;;;4.70;1.58;;;;;;;;;;4979677;28;20046;-72
2022/07/01 10:28:42;;;;;;;3.10;0.90;;;;;;;;;;4984392;28;20034;-70
2022/07/01 10:31:13;;;;;;;;;;;;;;;;;;4977730;28;20042;-73
2022/07/01 10:33:38;;;;;;;1.50;0.80;;;;;;;;;;4983579;28;19921;-70
2022/07/01 10:36:13;;;;;;;1.05;0.95;;;;;;;;;;4983472;28;20052;-71
2022/07/01 10:39:00;;;;;;;2.28;0.80;;;;;;;;;;4997769;28;20034;-71
2022/07/01 10:41:27;;;;;;;1.00;1.00;;;;;;;;;;4983422;28;20066;-71
2022/07/01 10:43:56;;;;;;;1.00;1.00;;;;;;;;;;4986960;28;20037;-73
2022/07/01 10:46:40;;;;;;;1.92;1.00;;;;;;;;;;4986828;28;20053;-71
2022/07/01 10:49:13;;;;;;;1.63;1.05;;;;;;;;;;5001647;28;20535;-70
2022/07/01 10:51:51;;;;;;;1.67;1.00;;;;;;;;;;4986773;28;20034;-72
2022/07/01 10:54:35;;;;;;;1.05;0.90;;;;;;;;;;4988266;28;20407;-71
2022/07/01 10:57:19;;;;;;;0.77;0.77;;;;;;;;;;4987007;28;20065;-71
2022/07/01 10:59:49;;;;;;;4.72;0.80;;;;;;;;;;4986787;28;20057;-71
2022/07/01 11:02:16;;;;;;;2.90;1.10;;;;;;;;;;4988209;28;20038;-72
2022/07/01 11:04:42;;;;;;;0.90;0.80;;;;;;;;;;4986269;28;20038;-72
2022/07/01 11:07:08;;;;;;;1.27;0.60;;;;;;;;;;4983891;28;20383;-71
2022/07/01 11:09:34;;;;;;;1.60;0.70;;;;;;;;;;4985284;28;20041;-71
2022/07/01 11:12:00;;;;;;;0.70;0.70;;;;;;;;;;4987616;28;20030;-72
2022/07/01 11:14:26;;;;;;;0.70;0.55;;;;;;;;;;4983134;28;20065;-73
2022/07/01 11:16:52;;;;;;;2.38;0.60;;;;;;;;;;4982807;28;20045;-72
2022/07/01 11:19:20;;;;;;;0.70;0.70;;;;;;;;;;4983117;28;20022;-74
2022/07/01 11:21:53;;;;;;;1.85;0.77;;;;;;;;;;4982217;28;20737;-74
2022/07/01 11:24:19;;;;;;;0.70;0.70;;;;;;;;;;4984214;28;20046;-74
2022/07/01 11:26:46;;;;;;;0.68;0.68;;;;;;;;;;4984282;28;20050;-72
2022/07/01 11:29:23;;;;;;;0.60;0.60;;;;;;;;;;4983294;28;20034;-69
2022/07/01 11:31:48;;;;;;;1.00;0.77;;;;;;;;;;4984566;28;20129;-71
2022/07/01 11:34:16;;;;;;;1.77;0.93;;;;;;;;;;4985620;28;20046;-73
2022/07/01 11:39:32;;;;;;;1.05;0.80;;;;;;;;;;4986742;28;20038;-69
2022/07/01 11:42:04;;;;;;;1.02;0.80;;;;;;;;;;4986471;28;20070;-69
2022/07/01 11:44:40;;;;;;;1.25;0.90;;;;;;;;;;4986848;28;20040;-70
2022/07/01 11:47:08;;;;;;;0.63;0.63;;;;;;;;;;4984357;28;20517;-70
2022/07/01 11:49:42;;;;;;;1.50;1.20;;;;;;;;;;4986592;28;20037;-70
2022/07/01 11:52:09;;;;;;;0.70;0.70;;;;;;;;;;4982378;28;20038;-71
2022/07/01 11:54:38;;;;;;;2.15;0.90;;;;;;;;;;4982187;28;20046;-70
2022/07/01 11:57:24;;;;;;;0.88;0.88;;;;;;;;;;4983631;28;20097;-71
2022/07/01 11:59:51;;;;;;;1.25;0.80;;;;;;;;;;4983168;28;20042;-71
2022/07/01 12:02:18;;;;;;;1.67;0.93;;;;;;;;;;4982120;28;20414;-70
2022/07/01 12:04:45;;;;;;;0.80;0.80;;;;;;;;;;4981867;28;20042;-70
2022/07/01 12:07:13;;;;;;;1.30;1.20;;;;;;;;;;4984646;28;20124;-70
2022/07/01 12:09:39;;;;;;;2.63;1.00;;;;;;;;;;4984151;28;20038;-70
2022/07/01 12:12:05;;;;;;;1.00;1.00;;;;;;;;;;4983889;28;20049;-70
2022/07/01 12:14:34;;;;;;;1.02;0.77;;;;;;;;;;4982342;28;20034;-70
2022/07/01 12:17:02;;;;;;;1.88;1.00;;;;;;;;;;4983416;28;20049;-71
2022/07/01 12:19:28;;;;;;;0.63;0.63;;;;;;;;;;4983038;28;20045;-71
2022/07/01 12:21:58;;;;;;;0.60;0.60;;;;;;;;;;4983160;28;20042;-70
2022/07/01 12:24:24;;;;;;;1.00;0.50;;;;;;;;;;4982441;28;20046;-70
2022/07/01 12:26:53;;;;;;;0.50;0.50;;;;;;;;;;4981994;28;20097;-70
2022/07/01 12:29:21;;;;;;;0.47;0.47;;;;;;;;;;4983395;28;20030;-71
2022/07/01 12:32:01;;;;;;;0.50;0.50;;;;;;;;;;4979924;28;20046;-70
2022/07/01 12:34:53;;;;;;;0.73;0.60;;;;;;;;;;4979514;28;20061;-70
2022/07/01 12:37:19;;;;;;;;;;;;;;;;;;4982309;28;20139;-69
2022/07/01 12:39:58;;;;;;;0.80;0.70;;;;;;;;;;4981188;28;19917;-69
2022/07/01 12:42:24;;;;;;;0.90;0.90;;;;;;;;;;4978912;28;20120;-69
2022/07/01 12:44:51;;;;;;;2.63;0.90;;;;;;;;;;4981228;28;20080;-69
2022/07/01 12:47:18;;;;;;;2.22;0.82;;;;;;;;;;4978876;28;20415;-69
2022/07/01 12:49:44;;;;;;;1.73;0.90;;;;;;;;;;4981944;28;20041;-69
2022/07/01 12:52:26;;;;;;;0.90;0.80;;;;;;;;;;4980927;28;20080;-69
2022/07/01 12:54:52;;;;;;;0.80;0.80;;;;;;;;;;4980463;28;20057;-69
2022/07/01 12:57:30;;;;;;;1.30;0.90;;;;;;;;;;4978785;28;20046;-69
2022/07/01 12:59:56;;;;;;;0.95;0.90;;;;;;;;;;4981971;28;20057;-69
2022/07/01 13:02:21;;;;;;;1.58;0.98;;;;;;;;;;4982122;28;20097;-70
2022/07/01 13:04:47;;;;;;;1.30;1.20;;;;;;;;;;4982148;28;20770;-70
2022/07/01 13:07:12;;;;;;;1.20;1.10;;;;;;;;;;4978453;28;20078;-70
2022/07/01 13:09:37;;;;;;;1.33;0.98;;;;;;;;;;4981640;28;20038;-70
2022/07/01 13:12:03;;;;;;;1.30;1.20;;;;;;;;;;4981127;28;20113;-69
2022/07/01 13:14:29;;;;;;;3.28;1.23;;;;;;;;;;4981781;28;20054;-69
2022/07/01 13:16:54;;;;;;;1.33;1.23;;;;;;;;;;4979369;28;20448;-70
2022/07/01 13:19:20;;;;;;;4.57;1.25;;;;;;;;;;4980593;28;20061;-70
2022/07/01 13:21:45;;;;;;;2.75;1.50;;;;;;;;;;4981611;28;20073;-70
2022/07/01 13:24:10;;;;;;;3.03;1.38;;;;;;;;;;4981416;28;20045;-72
2022/07/01 13:26:39;;;;;;;1.52;1.42;;;;;;;;;;4980810;28;20172;-71
2022/07/01 13:29:04;;;;;;;2.47;1.65;;;;;;;;;;4979021;28;20053;-71
2022/07/01 13:31:30;;;;;;;2.33;1.65;;;;;;;;;;4980661;28;20418;-71
2022/07/01 13:33:55;;;;;;;2.45;1.60;;;;;;;;;;4980043;28;20116;-71
2022/07/01 13:36:21;;;;;;;3.83;1.33;;;;;;;;;;4980854;28;20058;-72
2022/07/01 13:38:48;;;;;;;1.85;1.52;;;;;;;;;;4981109;28;20053;-71
2022/07/01 13:41:15;;;;;;;3.72;1.65;;;;;;;;;;4981326;28;20041;-72
2022/07/01 13:43:40;;;;;;;1.52;1.42;;;;;;;;;;4981391;28;20034;-71
2022/07/01 13:46:06;;;;;;;1.85;1.75;;;;;;;;;;4980968;28;20046;-71
2022/07/01 13:48:32;;;;;;;4.68;1.92;;;;;;;;;;4962140;28;20046;-69
2022/07/01 13:50:57;;;;;;;1.70;1.60;;;;;;;;;;4980051;28;20053;-69
2022/07/01 13:53:23;;;;;;;1.65;1.50;;;;;;;;;;4980156;28;20034;-74
2022/07/01 13:55:48;;;;;;;1.73;1.63;;;;;;;;;;4978181;28;20049;-71
2022/07/01 13:58:15;;;;;;;2.00;1.60;;;;;;;;;;4979641;28;20049;-70
2022/07/01 14:00:41;;;;;;;1.55;1.45;;;;;;;;;;4978379;28;20062;-69
2022/07/01 14:03:06;;;;;;;2.67;1.60;;;;;;;;;;4979130;28;20057;-71
2022/07/01 14:05:32;;;;;;;2.03;1.80;;;;;;;;;;4979388;28;20492;-72
2022/07/01 14:07:57;;;;;;;1.98;1.80;;;;;;;;;;4980011;28;20041;-72
2022/07/01 14:10:23;;;;;;;2.20;1.60;;;;;;;;;;4977651;28;20042;-72
2022/07/01 14:12:48;;;;;;;2.38;1.75;;;;;;;;;;4981349;28;20148;-72
2022/07/01 14:15:14;;;;;;;2.70;2.17;;;;;;;;;;4979569;28;20121;-73
2022/07/01 14:17:40;;;;;;;4.03;1.80;;;;;;;;;;4964174;28;20041;-72
2022/07/01 14:20:05;;;;;;;2.17;1.80;;;;;;;;;;4980785;28;20143;-73
2022/07/01 14:22:31;;;;;;;2.40;2.22;;;;;;;;;;4981322;28;20062;-72
2022/07/01 14:24:57;;;;;;;3.53;2.67;;;;;;;;;;4980696;28;20496;-70
2022/07/01 14:27:22;;;;;;;2.10;1.90;;;;;;;;;;4981068;28;20918;-69
2022/07/01 14:29:48;;;;;;;2.50;2.30;;;;;;;;;;4980993;28;20038;-70
2022/07/01 14:32:13;;;;;;;3.55;2.20;;;;;;;;;;4981646;28;20042;-71
2022/07/01 14:34:39;;;;;;;5.32;2.40;;;;;;;;;;4981564;28;20048;-72
2022/07/01 14:37:04;;;;;;;7.35;2.58;;;;;;;;;;4979222;28;20384;-72
2022/07/01 14:39:30;;;;;;;6.60;2.78;;;;;;;;;;4981322;28;20034;-72
2022/07/01 14:41:55;;;;;;;4.07;2.38;;;;;;;;;;4984364;28;20483;-73
2022/07/01 14:44:21;;;;;;;5.53;2.90;;;;;;;;;;4980883;28;20086;-73
2022/07/01 14:46:46;;;;;;;6.03;2.88;;;;;;;;;;4981137;28;20117;-72
2022/07/01 14:49:14;;;;;;;3.97;2.88;;;;;;;;;;4980965;28;20049;-71
2022/07/01 14:51:39;;;;;;;4.20;2.97;;;;;;;;;;4981222;28;20161;-71
2022/07/01 14:54:05;;;;;;;4.85;2.53;;;;;;;;;;4981328;28;20026;-71
2022/07/01 14:56:30;;;;;;;4.10;2.50;;;;;;;;;;4981221;28;20034;-71